Terminal Aerodrome Forecast
Issued by NWS

Home | Current Version | Previous Version | Text Only | Print | Product List | Glossary On
Versions: 1 2 3 4 5 6 7 8 9 10 11 12 13 14 15 16 17 18
000
FTUS41 KLWX 162300 RRA
TAFMTN
TAF
KMTN 162346Z 1700/1724 32007KT P6SM FEW250
     FM170400 VRB04KT P6SM FEW250
     FM171500 10010KT P6SM FEW040
     FM171900 11010KT P6SM BKN040
      AMD NOT SKED 1702/1712=

USA.gov is the U.S. government's official web portal to all federal, state and local government web resources and services.